createdAt,value
2023-01-25T00:02:15.235Z,6.50
2023-01-25T00:04:45.179Z,6.20
2023-01-25T00:07:14.995Z,5.67
2023-01-25T00:09:45.427Z,10.73
2023-01-25T00:12:17.047Z,13.13
2023-01-25T00:14:48.276Z,9.33
2023-01-25T00:17:20.803Z,5.57
2023-01-25T00:19:50.974Z,7.10
2023-01-25T00:22:21.061Z,15.53
2023-01-25T00:24:51.557Z,9.20
2023-01-25T00:27:21.443Z,13.13
2023-01-25T00:29:52.136Z,18.57
2023-01-25T00:32:56.128Z,25.13
2023-01-25T00:35:26.296Z,26.10
2023-01-25T00:37:58.143Z,11.00
2023-01-25T00:40:28.675Z,7.27
2023-01-25T00:43:01.211Z,31.67
2023-01-25T00:45:31.137Z,23.73
2023-01-25T00:48:05.489Z,32.87
2023-01-25T00:50:35.570Z,25.80
2023-01-25T00:53:06.665Z,20.33
2023-01-25T00:55:37.295Z,35.70
2023-01-25T00:58:08.169Z,75.90
2023-01-25T01:00:38.230Z,40.90
2023-01-25T01:03:11.200Z,12.17
2023-01-25T01:05:41.103Z,42.20
2023-01-25T01:08:11.522Z,26.07
2023-01-25T01:10:42.103Z,18.70
2023-01-25T01:13:13.160Z,29.80
2023-01-25T01:15:44.848Z,5.80
2023-01-25T01:18:17.989Z,2.40
2023-01-25T01:20:51.986Z,20.50
2023-01-25T01:23:25.245Z,15.37
2023-01-25T01:25:55.530Z,21.97
2023-01-25T01:28:26.426Z,8.50
2023-01-25T01:30:56.456Z,6.53
2023-01-25T01:33:30.946Z,4.23
2023-01-25T01:36:01.372Z,11.03
2023-01-25T01:38:32.026Z,4.23
2023-01-25T01:41:02.010Z,10.57
2023-01-25T01:43:34.443Z,7.17
2023-01-25T01:46:08.787Z,24.90
2023-01-25T01:48:46.361Z,5.30
2023-01-25T01:51:22.260Z,11.47
2023-01-25T01:53:58.192Z,14.70
2023-01-25T01:56:34.525Z,10.50
2023-01-25T01:59:08.392Z,12.57
2023-01-25T02:01:39.601Z,15.83
2023-01-25T02:04:13.903Z,24.30
2023-01-25T02:06:50.187Z,12.73
2023-01-25T02:09:24.485Z,22.03
2023-01-25T02:11:56.198Z,6.57
2023-01-25T02:14:27.998Z,5.33
2023-01-25T02:16:59.341Z,13.30
2023-01-25T02:19:41.624Z,18.07
2023-01-25T02:22:16.589Z,47.03
2023-01-25T02:24:53.884Z,48.17
2023-01-25T02:27:26.463Z,16.13
2023-01-25T02:29:57.908Z,23.47
2023-01-25T02:32:29.426Z,42.30
2023-01-25T02:35:00.905Z,21.67
2023-01-25T02:37:34.045Z,17.50
2023-01-25T02:40:06.175Z,24.57
2023-01-25T02:42:40.183Z,3.83
2023-01-25T02:45:14.717Z,5.90
2023-01-25T02:47:45.080Z,32.63
2023-01-25T02:50:16.026Z,7.30
2023-01-25T02:52:46.538Z,29.07
2023-01-25T02:55:17.164Z,18.40
2023-01-25T02:57:52.056Z,23.10
2023-01-25T03:00:24.310Z,37.30
2023-01-25T03:02:54.656Z,34.13
2023-01-25T03:05:27.359Z,27.60
2023-01-25T03:07:58.121Z,23.70
2023-01-25T03:10:29.037Z,10.63
2023-01-25T03:13:02.329Z,9.60
2023-01-25T03:15:33.110Z,14.30
2023-01-25T03:18:04.579Z,13.67
2023-01-25T03:20:35.750Z,8.70
2023-01-25T03:23:06.211Z,8.20
2023-01-25T03:25:38.408Z,7.20
2023-01-25T03:28:17.334Z,7.83
2023-01-25T03:30:56.370Z,9.23
2023-01-25T03:33:26.387Z,24.90
2023-01-25T03:35:57.317Z,7.57
2023-01-25T03:38:28.956Z,13.90
2023-01-25T03:41:02.074Z,4.50
2023-01-25T03:43:34.801Z,21.23
2023-01-25T03:46:05.829Z,19.50
2023-01-25T03:48:37.009Z,8.13
2023-01-25T03:51:08.615Z,6.90
2023-01-25T03:53:39.703Z,21.03
2023-01-25T03:56:20.528Z,25.70
2023-01-25T03:59:02.349Z,51.13
2023-01-25T04:01:33.789Z,35.30
2023-01-25T04:04:05.491Z,25.20
2023-01-25T04:06:37.081Z,12.13
2023-01-25T04:09:08.657Z,80.93
2023-01-25T04:11:46.383Z,57.20
2023-01-25T04:14:31.816Z,52.33
2023-01-25T04:17:11.633Z,64.63
2023-01-25T04:19:46.376Z,38.23
2023-01-25T04:22:19.537Z,65.40
2023-01-25T04:24:52.908Z,128.77
2023-01-25T04:27:23.959Z,348.00
2023-01-25T04:30:19.854Z,150.80
2023-01-25T04:32:52.099Z,210.17
2023-01-25T04:35:28.002Z,206.77
2023-01-25T04:38:00.045Z,87.47
2023-01-25T04:40:38.507Z,66.30
2023-01-25T04:43:09.267Z,36.17
2023-01-25T04:45:42.685Z,35.83
2023-01-25T04:48:19.015Z,61.00
2023-01-25T04:50:54.795Z,61.50
2023-01-25T04:53:26.572Z,26.80
2023-01-25T04:55:59.263Z,29.57
2023-01-25T04:58:29.872Z,40.57
2023-01-25T05:01:07.744Z,55.53
2023-01-25T05:03:37.991Z,26.37
2023-01-25T05:06:12.845Z,35.23
2023-01-25T05:08:42.988Z,45.73
2023-01-25T05:11:13.518Z,10.80
2023-01-25T05:13:52.100Z,15.37
2023-01-25T05:16:32.071Z,16.30
2023-01-25T05:19:03.483Z,70.50
2023-01-25T05:22:04.149Z,26.23
2023-01-25T05:24:43.172Z,32.83
2023-01-25T05:27:14.083Z,22.57
2023-01-25T05:29:59.492Z,99.70
2023-01-25T05:33:00.575Z,69.57
2023-01-25T05:35:31.359Z,101.73
2023-01-25T05:38:02.831Z,88.20
2023-01-25T05:40:33.951Z,115.40
2023-01-25T05:43:04.723Z,91.70
2023-01-25T05:45:35.783Z,38.50
2023-01-25T05:48:10.365Z,65.17
2023-01-25T05:50:41.421Z,68.87
2023-01-25T05:53:14.506Z,104.63
2023-01-25T05:55:45.379Z,68.20
2023-01-25T05:58:19.753Z,67.47
2023-01-25T06:00:50.006Z,116.07
2023-01-25T06:03:33.901Z,64.00
2023-01-25T06:06:05.273Z,119.30
2023-01-25T06:08:36.210Z,143.13
2023-01-25T06:11:10.323Z,92.10
2023-01-25T06:13:44.367Z,131.60
2023-01-25T06:16:15.560Z,132.40
2023-01-25T06:18:48.237Z,118.67
2023-01-25T06:21:53.499Z,96.00
2023-01-25T06:24:23.355Z,135.67
2023-01-25T06:26:53.657Z,75.13
2023-01-25T06:29:23.469Z,101.33
2023-01-25T06:31:55.302Z,98.30
2023-01-25T06:34:27.845Z,90.00
2023-01-25T06:36:58.106Z,88.00
2023-01-25T06:39:29.774Z,103.70
2023-01-25T06:42:00.611Z,199.27
2023-01-25T06:44:30.540Z,271.57
2023-01-25T06:47:00.751Z,233.77
2023-01-25T06:49:33.409Z,210.60
2023-01-25T06:52:04.537Z,133.10
2023-01-25T06:54:34.447Z,236.50
2023-01-25T06:57:04.974Z,251.90
2023-01-25T06:59:34.781Z,193.13
2023-01-25T07:02:05.441Z,98.00
2023-01-25T07:04:38.126Z,159.90
2023-01-25T07:07:11.044Z,163.30
2023-01-25T07:09:40.862Z,234.77
2023-01-25T07:12:10.881Z,190.33
2023-01-25T07:14:40.698Z,225.90
2023-01-25T07:17:11.125Z,225.10
2023-01-25T07:19:43.585Z,157.03
2023-01-25T07:22:18.073Z,127.00
2023-01-25T07:24:50.775Z,82.00
2023-01-25T07:27:21.436Z,131.20
2023-01-25T07:29:51.242Z,201.07
2023-01-25T07:32:21.413Z,125.43
2023-01-25T07:34:53.837Z,204.87
2023-01-25T07:37:24.054Z,276.60
2023-01-25T07:39:53.851Z,206.53
2023-01-25T07:42:25.904Z,259.13
2023-01-25T07:45:14.643Z,213.80
2023-01-25T07:47:45.321Z,295.37
2023-01-25T07:50:18.834Z,107.50
2023-01-25T07:52:49.730Z,174.53
2023-01-25T07:55:19.710Z,285.13
2023-01-25T07:57:49.785Z,48.97
2023-01-25T08:00:20.803Z,116.03
2023-01-25T08:02:53.415Z,177.27
2023-01-25T08:05:25.939Z,262.30
2023-01-25T08:07:56.151Z,196.67
2023-01-25T08:10:26.023Z,255.00
2023-01-25T08:12:56.639Z,403.53
2023-01-25T08:15:26.474Z,281.93
2023-01-25T08:17:56.866Z,204.07
2023-01-25T08:20:29.514Z,193.93
2023-01-25T08:23:00.004Z,253.43
2023-01-25T08:25:30.120Z,161.57
2023-01-25T08:28:00.596Z,90.50
2023-01-25T08:30:30.538Z,290.77
2023-01-25T08:33:01.308Z,323.10
2023-01-25T08:35:35.751Z,298.57
2023-01-25T08:38:06.192Z,256.67
2023-01-25T08:40:38.342Z,307.67
2023-01-25T08:43:08.937Z,292.60
2023-01-25T08:45:39.176Z,295.43
2023-01-25T08:48:09.234Z,325.73
2023-01-25T08:50:41.694Z,178.17
2023-01-25T08:53:12.326Z,245.57
2023-01-25T08:55:43.189Z,330.77
2023-01-25T08:58:14.090Z,339.23
2023-01-25T09:00:45.082Z,195.90
2023-01-25T09:03:15.519Z,343.73
2023-01-25T09:05:48.028Z,202.80
2023-01-25T09:08:18.102Z,319.50
2023-01-25T09:10:47.936Z,397.77
2023-01-25T09:13:18.183Z,382.57
2023-01-25T09:15:48.151Z,250.93
2023-01-25T09:18:18.010Z,373.33
2023-01-25T09:20:50.499Z,309.47
2023-01-25T09:23:22.997Z,128.43
2023-01-25T09:25:59.031Z,474.57
2023-01-25T09:28:30.424Z,182.53
2023-01-25T09:31:20.045Z,361.67
2023-01-25T09:34:10.112Z,341.50
2023-01-25T09:36:43.084Z,465.67
2023-01-25T09:39:14.774Z,428.43
2023-01-25T09:42:22.765Z,364.83
2023-01-25T09:45:13.919Z,237.53
2023-01-25T09:47:50.499Z,133.60
2023-01-25T09:50:33.612Z,310.17
2023-01-25T09:53:37.122Z,271.20
2023-01-25T09:56:12.822Z,230.23
2023-01-25T09:58:47.213Z,133.77
2023-01-25T10:01:38.013Z,377.63
2023-01-25T10:04:16.607Z,285.47
2023-01-25T10:06:59.875Z,213.60
2023-01-25T10:09:45.381Z,209.70
2023-01-25T10:12:19.704Z,302.73
2023-01-25T10:14:49.926Z,337.10
2023-01-25T10:17:30.235Z,226.80
2023-01-25T10:20:16.401Z,361.07
2023-01-25T10:22:51.999Z,210.53
2023-01-25T10:25:31.862Z,406.43
2023-01-25T10:28:29.864Z,391.63
2023-01-25T10:31:03.835Z,257.43
2023-01-25T10:33:38.010Z,266.03
2023-01-25T10:36:09.653Z,220.97
2023-01-25T10:38:43.187Z,393.27
2023-01-25T10:41:21.409Z,274.50
2023-01-25T10:44:11.420Z,307.83
2023-01-25T10:46:43.520Z,270.83
2023-01-25T10:49:26.303Z,394.40
2023-01-25T10:51:56.314Z,446.33
2023-01-25T10:54:29.384Z,293.70
2023-01-25T10:57:02.884Z,413.57
2023-01-25T10:59:33.889Z,362.27
2023-01-25T11:02:39.724Z,257.53
2023-01-25T11:05:32.339Z,182.70
2023-01-25T11:08:18.672Z,411.73
2023-01-25T11:10:49.104Z,422.43
2023-01-25T11:13:28.718Z,461.13
2023-01-25T11:16:19.589Z,411.20
2023-01-25T11:18:54.571Z,348.77
2023-01-25T11:21:27.620Z,405.67
2023-01-25T11:24:05.282Z,412.00
2023-01-25T11:26:36.475Z,314.27
2023-01-25T11:29:17.152Z,544.23
2023-01-25T11:31:49.482Z,283.30
2023-01-25T11:34:22.345Z,342.30
2023-01-25T11:37:15.875Z,509.33
2023-01-25T11:39:56.597Z,294.50
2023-01-25T11:42:37.925Z,492.97
2023-01-25T11:45:45.525Z,449.27
2023-01-25T11:48:33.998Z,118.63
2023-01-25T11:51:08.476Z,356.27
2023-01-25T11:54:03.978Z,313.83
2023-01-25T11:56:47.334Z,323.83
2023-01-25T11:59:32.139Z,500.33
2023-01-25T12:02:19.278Z,388.60
2023-01-25T12:05:21.659Z,450.33
2023-01-25T12:08:01.973Z,406.70
2023-01-25T12:10:43.131Z,279.90
2023-01-25T12:13:22.884Z,467.37
2023-01-25T12:16:11.611Z,326.83
2023-01-25T12:19:10.724Z,546.33
2023-01-25T12:21:54.883Z,455.60
2023-01-25T12:24:43.902Z,355.87
2023-01-25T12:27:26.154Z,542.83
2023-01-25T12:30:03.393Z,426.67
2023-01-25T12:32:40.785Z,498.77
2023-01-25T12:35:27.599Z,462.80
2023-01-25T12:38:02.512Z,426.33
2023-01-25T12:40:44.111Z,121.53
2023-01-25T12:43:20.079Z,506.53
2023-01-25T12:45:51.802Z,462.90
2023-01-25T12:48:25.431Z,380.57
2023-01-25T12:50:59.362Z,476.53
2023-01-25T12:53:36.386Z,423.43
2023-01-25T12:56:09.125Z,452.63
2023-01-25T12:58:47.758Z,244.53
2023-01-25T13:01:26.351Z,543.23
2023-01-25T13:04:09.244Z,484.13
2023-01-25T13:06:50.366Z,377.87
2023-01-25T13:09:26.263Z,508.67
2023-01-25T13:11:56.834Z,257.50
2023-01-25T13:14:37.844Z,380.73
2023-01-25T13:17:27.696Z,317.30
2023-01-25T13:19:57.709Z,402.40
2023-01-25T13:23:01.762Z,138.57
2023-01-25T13:25:31.855Z,264.70
2023-01-25T13:28:43.716Z,258.57
2023-01-25T13:31:50.025Z,366.30
2023-01-25T13:34:51.143Z,333.37
2023-01-25T13:37:22.728Z,250.93
2023-01-25T13:39:56.876Z,199.40
2023-01-25T13:42:28.162Z,116.33
2023-01-25T13:45:01.145Z,214.10
2023-01-25T13:47:37.914Z,362.70
2023-01-25T13:50:21.869Z,208.13
2023-01-25T13:53:02.266Z,132.73
2023-01-25T13:55:42.985Z,289.30
2023-01-25T13:58:14.297Z,86.93
2023-01-25T14:00:54.809Z,91.77
2023-01-25T14:03:29.663Z,238.10
2023-01-25T14:06:02.659Z,267.00
2023-01-25T14:08:33.714Z,373.20
2023-01-25T14:11:06.298Z,407.57
2023-01-25T14:13:36.242Z,379.13
2023-01-25T14:16:13.166Z,304.53
2023-01-25T14:18:45.245Z,319.80
2023-01-25T14:21:19.221Z,293.77
2023-01-25T14:23:50.293Z,111.73
2023-01-25T14:26:28.535Z,313.50
2023-01-25T14:29:02.423Z,247.47
2023-01-25T14:31:37.199Z,331.10
2023-01-25T14:34:09.472Z,324.83
2023-01-25T14:36:39.336Z,314.90
2023-01-25T14:39:19.994Z,186.57
2023-01-25T14:42:01.145Z,309.23
2023-01-25T14:44:32.960Z,364.73
2023-01-25T14:47:32.710Z,359.10
2023-01-25T14:50:34.402Z,519.87
2023-01-25T14:53:12.527Z,419.10
2023-01-25T14:55:47.654Z,357.63
2023-01-25T14:58:24.071Z,190.03
2023-01-25T15:00:57.634Z,319.37
2023-01-25T15:03:29.474Z,233.67
2023-01-25T15:06:01.594Z,350.87
2023-01-25T15:08:33.122Z,385.90
2023-01-25T15:11:23.838Z,264.30
2023-01-25T15:14:13.457Z,527.53
2023-01-25T15:16:43.309Z,415.80
2023-01-25T15:19:32.828Z,413.13
2023-01-25T15:22:03.391Z,374.07
2023-01-25T15:24:33.585Z,389.10
2023-01-25T15:27:03.647Z,539.53
2023-01-25T15:29:36.298Z,285.67
2023-01-25T15:32:06.299Z,380.80
2023-01-25T15:34:37.266Z,472.23
2023-01-25T15:37:07.229Z,396.60
2023-01-25T15:39:37.377Z,288.57
2023-01-25T15:42:07.628Z,296.33
2023-01-25T15:44:41.105Z,272.03
2023-01-25T15:47:12.933Z,219.27
2023-01-25T15:49:43.165Z,262.67
2023-01-25T15:52:14.076Z,224.20
2023-01-25T15:54:52.159Z,169.10
2023-01-25T15:57:34.195Z,241.97
2023-01-25T16:00:08.519Z,316.73
2023-01-25T16:02:39.075Z,235.00
2023-01-25T16:05:11.757Z,196.83
2023-01-25T16:07:43.645Z,271.87
2023-01-25T16:10:23.450Z,277.03
2023-01-25T16:12:53.714Z,225.23
2023-01-25T16:15:26.849Z,421.17
2023-01-25T16:17:56.582Z,249.07
2023-01-25T16:20:26.466Z,275.53
2023-01-25T16:22:56.267Z,245.20
2023-01-25T16:25:26.068Z,291.13
2023-01-25T16:27:55.876Z,334.47
2023-01-25T16:30:32.575Z,306.50
2023-01-25T16:33:02.606Z,338.07
2023-01-25T16:35:32.910Z,421.07
2023-01-25T16:38:02.796Z,203.17
2023-01-25T16:40:40.152Z,402.70
2023-01-25T16:43:10.017Z,401.37
2023-01-25T16:45:42.885Z,285.50
2023-01-25T16:48:18.090Z,385.23
2023-01-25T16:50:48.441Z,458.53
2023-01-25T16:53:18.537Z,366.47
2023-01-25T16:55:49.577Z,279.77
2023-01-25T16:58:19.783Z,314.67
2023-01-25T17:00:53.081Z,363.13
2023-01-25T17:03:23.012Z,268.83
2023-01-25T17:05:52.949Z,245.20
2023-01-25T17:08:23.155Z,215.83
2023-01-25T17:10:54.245Z,290.40
2023-01-25T17:13:24.564Z,299.20
2023-01-25T17:15:58.814Z,314.43
2023-01-25T17:18:29.234Z,225.63
2023-01-25T17:21:01.168Z,310.97
2023-01-25T17:23:33.451Z,344.97
2023-01-25T17:26:06.431Z,130.10
2023-01-25T17:28:36.420Z,314.27
2023-01-25T17:31:17.491Z,207.17
2023-01-25T17:33:48.027Z,204.80
2023-01-25T17:36:18.581Z,285.90
2023-01-25T17:38:49.367Z,210.23
2023-01-25T17:41:22.914Z,188.43
2023-01-25T17:43:55.541Z,164.97
2023-01-25T17:46:33.600Z,166.50
2023-01-25T17:49:05.450Z,157.20
2023-01-25T17:51:37.196Z,74.13
2023-01-25T17:54:08.247Z,230.83
2023-01-25T17:56:39.603Z,80.37
2023-01-25T17:59:11.777Z,217.03
2023-01-25T18:01:45.312Z,111.53
2023-01-25T18:04:17.724Z,128.90
2023-01-25T18:06:48.247Z,279.03
2023-01-25T18:09:18.525Z,205.97
2023-01-25T18:11:49.334Z,357.17
2023-01-25T18:14:20.334Z,262.43
2023-01-25T18:16:53.789Z,235.03
2023-01-25T18:19:23.703Z,311.67
2023-01-25T18:21:53.536Z,112.30
2023-01-25T18:24:29.854Z,165.30
2023-01-25T18:27:03.742Z,312.07
2023-01-25T18:29:55.253Z,293.23
2023-01-25T18:32:27.663Z,297.10
2023-01-25T18:34:57.783Z,268.53
2023-01-25T18:37:33.578Z,286.33
2023-01-25T18:40:03.691Z,339.97
2023-01-25T18:42:33.408Z,213.57
2023-01-25T18:45:03.417Z,208.67
2023-01-25T18:47:36.576Z,141.00
2023-01-25T18:50:09.165Z,331.03
2023-01-25T18:52:39.365Z,245.90
2023-01-25T18:55:11.023Z,252.03
2023-01-25T18:57:41.406Z,301.97
2023-01-25T19:00:15.334Z,349.37
2023-01-25T19:02:47.856Z,280.27
2023-01-25T19:05:19.467Z,232.20
2023-01-25T19:07:49.308Z,281.30
2023-01-25T19:10:21.307Z,277.73
2023-01-25T19:12:51.097Z,253.03
2023-01-25T19:15:21.432Z,317.47
2023-01-25T19:17:53.830Z,153.63
2023-01-25T19:20:24.055Z,222.33
2023-01-25T19:22:56.883Z,136.87
2023-01-25T19:25:27.258Z,284.57
2023-01-25T19:27:57.268Z,268.93
2023-01-25T19:30:28.566Z,239.77
2023-01-25T19:33:02.648Z,366.07
2023-01-25T19:35:32.661Z,366.53
2023-01-25T19:38:02.538Z,220.07
2023-01-25T19:40:32.741Z,213.30
2023-01-25T19:43:02.765Z,399.83
2023-01-25T19:45:33.233Z,330.63
2023-01-25T19:48:06.699Z,394.83
2023-01-25T19:50:37.497Z,232.90
2023-01-25T19:53:07.423Z,393.37
2023-01-25T19:55:38.078Z,173.47
2023-01-25T19:58:09.879Z,153.07
2023-01-25T20:00:40.166Z,226.47
2023-01-25T20:03:16.642Z,357.30
2023-01-25T20:05:47.568Z,342.87
2023-01-25T20:08:17.708Z,257.67
2023-01-25T20:10:47.853Z,291.33
2023-01-25T20:13:17.736Z,212.87
2023-01-25T20:15:49.586Z,314.67
2023-01-25T20:18:22.439Z,332.87
2023-01-25T20:20:58.966Z,245.33
2023-01-25T20:23:29.591Z,239.90
2023-01-25T20:26:00.902Z,325.40
2023-01-25T20:28:31.760Z,228.87
2023-01-25T20:31:04.037Z,393.07
2023-01-25T20:33:37.321Z,300.80
2023-01-25T20:36:08.700Z,268.40
2023-01-25T20:38:40.071Z,234.53
2023-01-25T20:41:13.726Z,173.27
2023-01-25T20:43:48.079Z,244.00
2023-01-25T20:46:18.823Z,138.27
2023-01-25T20:48:52.904Z,160.43
2023-01-25T20:51:24.100Z,135.67
2023-01-25T20:53:54.900Z,180.17
2023-01-25T20:56:25.902Z,219.20
2023-01-25T20:58:56.531Z,265.40
2023-01-25T21:01:28.405Z,259.60
2023-01-25T21:04:01.140Z,181.43
2023-01-25T21:06:31.402Z,232.87
2023-01-25T21:09:01.617Z,264.87
2023-01-25T21:11:32.075Z,211.20
2023-01-25T21:14:01.879Z,287.90
2023-01-25T21:16:32.483Z,185.90
2023-01-25T21:19:08.748Z,112.73
2023-01-25T21:21:39.471Z,290.23
2023-01-25T21:24:10.041Z,230.77
2023-01-25T21:26:40.674Z,166.20
2023-01-25T21:29:10.546Z,259.90
2023-01-25T21:31:43.196Z,323.67
2023-01-25T21:34:15.755Z,304.67
2023-01-25T21:36:45.604Z,261.33
2023-01-25T21:39:15.464Z,164.17
2023-01-25T21:41:45.623Z,157.20
2023-01-25T21:44:27.904Z,277.20
2023-01-25T21:47:27.799Z,223.63
2023-01-25T21:50:02.898Z,314.83
2023-01-25T21:52:35.311Z,197.40
2023-01-25T21:55:06.181Z,247.10
2023-01-25T21:57:36.506Z,184.97
2023-01-25T22:00:07.868Z,262.93
2023-01-25T22:02:38.259Z,190.47
2023-01-25T22:05:11.524Z,363.00
2023-01-25T22:07:41.893Z,216.57
2023-01-25T22:10:13.352Z,216.97
2023-01-25T22:12:43.891Z,158.13
2023-01-25T22:15:14.788Z,301.43
2023-01-25T22:17:44.909Z,398.27
2023-01-25T22:20:17.625Z,470.53
2023-01-25T22:22:48.109Z,556.10
2023-01-25T22:25:17.984Z,600.27
2023-01-25T22:27:53.664Z,364.67
2023-01-25T22:30:23.579Z,441.77
2023-01-25T22:32:53.753Z,521.60
2023-01-25T22:35:26.192Z,317.60
2023-01-25T22:37:56.987Z,292.73
2023-01-25T22:40:26.948Z,236.40
2023-01-25T22:42:57.835Z,294.87
2023-01-25T22:45:27.607Z,105.43
2023-01-25T22:47:57.912Z,313.97
2023-01-25T22:50:30.336Z,232.13
2023-01-25T22:53:01.042Z,274.77
2023-01-25T22:55:33.449Z,92.97
2023-01-25T22:58:03.236Z,102.63
2023-01-25T23:00:33.512Z,110.50
2023-01-25T23:03:03.380Z,164.53
2023-01-25T23:05:36.106Z,209.00
2023-01-25T23:08:06.139Z,86.87
2023-01-25T23:10:36.101Z,123.13
2023-01-25T23:13:06.047Z,242.10
2023-01-25T23:15:38.664Z,227.37
2023-01-25T23:18:21.108Z,185.87
2023-01-25T23:20:53.625Z,404.00
2023-01-25T23:23:23.486Z,288.03
2023-01-25T23:25:53.555Z,128.33
2023-01-25T23:28:23.524Z,359.73
2023-01-25T23:31:17.498Z,331.83
2023-01-25T23:33:48.372Z,239.93
2023-01-25T23:36:23.177Z,246.13
2023-01-25T23:38:54.395Z,299.27
2023-01-25T23:41:26.444Z,153.57
2023-01-25T23:43:57.903Z,334.67
2023-01-25T23:46:28.998Z,98.53
2023-01-25T23:48:59.018Z,146.00
2023-01-25T23:51:32.106Z,168.80
2023-01-25T23:54:01.871Z,389.77
2023-01-25T23:56:32.103Z,291.13
2023-01-25T23:59:01.932Z,305.43
